KMKO

Muskogee-Davis Regional Airport

Muskogee, Oklahoma, USA
METAR KMKO 191525Z AUTO 05006KT 6SM -RA BR FEW004 OVC011 24/24 A2988 RMK AO2 P0000 T02440244
Observed Flight Rules
Aug-19 @ 15:25 UTC (12 minutes ago) Marginal Visual Flight Rules
Wind Visibility Clouds Conditions
50° at 6 knots 6 miles
  • Few at 400' AGL
  • Overcast at 1,100' AGL
  • Light Rain
  • Mist
Temperatures Readings Precipitation
Current 24°C / 75°F
Dewpoint 24°C / 75°F
Humidity 100%
Altimeter 29.88" Hg
Pressure 1012 hPa
Elevation 185
Current Rain 0.005
METAR KMKO 191525Z AUTO 05006KT 6SM -RA BR FEW004 OVC011 24/24 A2988 RMK AO2 P0000 T02440244
Observed Flight Rules
Aug-19 @ 15:25 UTC
(12 minutes ago)
MVFR
Wind Visibility
50° at 6 knots 6 miles
Clouds
  • Few at 400' AGL
  • Overcast at 1,100' AGL
Conditions
  • Light Rain
  • Mist
Temperature Dewpoint
24°C / 75°F 24°C / 75°F
Humidity Altimeter Pressure
100% 29.88" Hg 1012 hPa
Current Rain
0.005